Time;durP1;ratioP1;P1;durP2;ratioP2;P2;SDS_P1;SDS_P2;PMS_P1;PMS_P2;Temp;Humidity;BMP_temperature;BMP_pressure;BME280_temperature;BME280_humidity;BME280_pressure;Samples;Min_cycle;Max_cycle;Signal;HPM_P1;HPM_P2
2023/09/09 00:01:26;;;;;;;10.82;4.20;;;;;;;18.70;100.00;100695.00;5056527;28;20486;-69
2023/09/09 00:03:53;;;;;;;8.82;3.95;;;;;;;18.66;100.00;100690.03;5060666;28;20128;-69
2023/09/09 00:06:20;;;;;;;10.02;3.67;;;;;;;18.75;100.00;100674.31;5064883;28;20102;-69
2023/09/09 00:08:46;;;;;;;8.05;3.38;;;;;;;18.78;100.00;100667.91;5053200;28;20406;-69
2023/09/09 00:11:13;;;;;;;9.43;3.83;;;;;;;18.78;100.00;100673.22;5052381;28;20507;-69
2023/09/09 00:13:40;;;;;;;10.02;3.97;;;;;;;18.85;100.00;100671.84;5054864;28;20063;-69
2023/09/09 00:16:07;;;;;;;10.15;4.13;;;;;;;18.85;100.00;100666.53;5063170;28;20497;-69
2023/09/09 00:18:34;;;;;;;12.02;4.45;;;;;;;18.84;100.00;100662.22;5056666;28;20359;-69
2023/09/09 00:21:00;;;;;;;9.70;4.45;;;;;;;18.79;100.00;100654.53;5060122;28;20128;-69
2023/09/09 00:23:27;;;;;;;8.77;3.80;;;;;;;18.81;100.00;100661.56;5064786;28;20486;-69
2023/09/09 00:25:54;;;;;;;9.23;3.33;;;;;;;18.70;100.00;100657.88;5052567;28;20057;-69
2023/09/09 00:28:20;;;;;;;8.35;3.92;;;;;;;18.71;100.00;100653.41;5064319;28;20068;-69
2023/09/09 00:30:47;;;;;;;9.85;4.10;;;;;;;18.81;100.00;100651.78;5068681;28;20052;-69
2023/09/09 00:33:13;;;;;;;8.57;3.63;;;;;;;18.94;100.00;100646.44;5063155;28;20071;-68
2023/09/09 00:35:40;;;;;;;12.50;3.88;;;;;;;18.81;100.00;100641.19;5065797;28;20087;-68
2023/09/09 00:38:09;;;;;;;8.80;3.53;;;;;;;18.80;100.00;100652.72;5069192;28;20051;-68
2023/09/09 00:40:35;;;;;;;10.43;4.13;;;;;;;18.81;100.00;100657.09;5054517;28;20528;-68
2023/09/09 00:43:02;;;;;;;10.70;3.35;;;;;;;18.77;100.00;100647.69;5052556;28;20071;-68
2023/09/09 00:45:29;;;;;;;10.02;3.95;;;;;;;18.87;100.00;100646.03;5069228;28;20055;-68
2023/09/09 00:47:56;;;;;;;11.27;4.07;;;;;;;18.80;100.00;100650.06;5065050;28;20493;-68
2023/09/09 00:50:24;;;;;;;9.55;3.40;;;;;;;18.80;100.00;100642.13;5064550;28;20241;-68
2023/09/09 00:52:51;;;;;;;11.07;4.70;;;;;;;18.65;100.00;100638.81;5068597;28;20140;-68
2023/09/09 00:55:18;;;;;;;14.35;4.43;;;;;;;18.47;100.00;100629.50;5064609;28;20048;-68
2023/09/09 00:57:45;;;;;;;8.85;4.07;;;;;;;18.56;100.00;100623.56;5068520;28;20051;-68
2023/09/09 01:00:12;;;;;;;10.23;3.60;;;;;;;18.63;100.00;100622.16;5068246;28;20048;-68
2023/09/09 01:02:40;;;;;;;11.75;4.57;;;;;;;18.60;100.00;100609.97;5061289;28;20500;-68
2023/09/09 01:05:08;;;;;;;14.82;4.93;;;;;;;18.59;100.00;100618.03;5060288;28;20048;-68
2023/09/09 01:07:46;;;;;;;9.30;4.18;;;;;;;18.71;100.00;100618.94;5065052;28;20048;-68
2023/09/09 01:10:15;;;;;;;10.27;4.35;;;;;;;18.65;100.00;100606.97;5065729;28;20420;-68
2023/09/09 01:12:42;;;;;;;9.88;4.45;;;;;;;18.45;100.00;100597.84;5057100;28;20057;-68
2023/09/09 01:15:10;;;;;;;11.10;4.45;;;;;;;18.32;100.00;100608.47;5066283;28;20053;-68
2023/09/09 01:17:38;;;;;;;12.65;4.60;;;;;;;18.42;100.00;100597.22;5068955;28;20406;-68
2023/09/09 01:20:14;;;;;;;8.63;3.78;;;;;;;18.64;100.00;100601.78;5068961;28;20102;-68
2023/09/09 01:22:48;;;;;;;12.88;4.22;;;;;;;18.59;100.00;100592.38;5070158;28;20127;-68
2023/09/09 01:25:16;;;;;;;10.43;3.85;;;;;;;18.45;100.00;100581.06;5067691;28;20052;-68
2023/09/09 01:27:43;;;;;;;9.65;4.05;;;;;;;18.26;100.00;100582.44;5070479;28;20473;-68
2023/09/09 01:30:11;;;;;;;9.02;4.18;;;;;;;18.37;100.00;100569.22;5069632;28;20425;-68
2023/09/09 01:32:38;;;;;;;12.00;4.22;;;;;;;18.39;100.00;100580.56;5070398;28;20558;-68
2023/09/09 01:35:06;;;;;;;10.73;3.60;;;;;;;18.21;100.00;100573.97;5068869;28;20048;-68
2023/09/09 01:37:33;;;;;;;10.82;4.82;;;;;;;18.09;100.00;100580.13;5066255;28;20053;-68
2023/09/09 01:40:05;;;;;;;15.32;5.13;;;;;;;18.01;100.00;100578.88;5070115;28;20056;-68
2023/09/09 01:42:32;;;;;;;9.63;4.28;;;;;;;18.03;100.00;100578.78;5068080;28;20098;-68
2023/09/09 01:44:59;;;;;;;12.60;4.25;;;;;;;18.01;100.00;100575.41;5068588;28;20102;-68
2023/09/09 01:47:26;;;;;;;13.98;4.60;;;;;;;17.86;100.00;100571.19;5058654;28;20048;-68
2023/09/09 01:49:52;;;;;;;10.95;4.07;;;;;;;17.86;100.00;100582.63;5060808;28;20055;-68
2023/09/09 01:52:19;;;;;;;8.85;4.38;;;;;;;17.89;100.00;100571.81;5061883;28;20048;-68
2023/09/09 01:54:46;;;;;;;12.05;4.53;;;;;;;17.90;100.00;100581.47;5069418;28;20052;-68
2023/09/09 01:57:14;;;;;;;10.45;3.97;;;;;;;17.89;100.00;100579.75;5065887;28;20053;-68
2023/09/09 01:59:41;;;;;;;8.80;4.28;;;;;;;17.83;100.00;100581.00;5068691;28;20048;-68
2023/09/09 02:02:07;;;;;;;8.85;3.53;;;;;;;17.94;100.00;100560.91;5068092;28;20041;-68
2023/09/09 02:04:34;;;;;;;9.35;3.08;;;;;;;18.13;100.00;100569.22;5063690;28;20052;-68
2023/09/09 02:07:01;;;;;;;7.78;3.10;;;;;;;18.14;100.00;100570.91;5068761;28;20139;-68
2023/09/09 02:09:27;;;;;;;10.10;4.03;;;;;;;18.05;100.00;100571.56;5069262;28;20048;-68
2023/09/09 02:11:54;;;;;;;11.00;3.80;;;;;;;17.99;100.00;100575.50;5069066;28;20048;-68
2023/09/09 02:14:21;;;;;;;11.05;3.72;;;;;;;18.00;100.00;100568.41;5060887;28;20052;-69
2023/09/09 02:16:47;;;;;;;8.95;3.25;;;;;;;18.09;100.00;100572.19;5069186;28;20048;-69
2023/09/09 02:19:14;;;;;;;9.65;3.53;;;;;;;17.96;100.00;100564.28;5068043;28;20056;-69
2023/09/09 02:21:41;;;;;;;8.82;3.40;;;;;;;18.07;100.00;100571.47;5070060;28;20402;-69
2023/09/09 02:24:07;;;;;;;9.05;3.78;;;;;;;17.99;100.00;100567.56;5069562;28;20044;-69
2023/09/09 02:26:35;;;;;;;9.35;3.55;;;;;;;17.90;100.00;100554.09;5069858;28;20055;-69
2023/09/09 02:29:02;;;;;;;9.88;4.10;;;;;;;17.78;100.00;100556.66;5068818;28;20057;-69
2023/09/09 02:31:28;;;;;;;8.77;3.60;;;;;;;17.89;100.00;100563.88;5068650;28;20681;-68
2023/09/09 02:33:55;;;;;;;11.45;4.00;;;;;;;18.07;100.00;100568.81;5067609;28;20052;-69
2023/09/09 02:36:22;;;;;;;11.98;4.38;;;;;;;18.12;100.00;100567.50;5069064;28;20052;-69
2023/09/09 02:38:48;;;;;;;14.48;5.18;;;;;;;17.89;100.00;100560.38;5069091;28;20048;-69
2023/09/09 02:41:15;;;;;;;9.95;4.40;;;;;;;17.99;100.00;100564.06;5070853;28;20188;-69
2023/09/09 02:43:42;;;;;;;9.00;4.00;;;;;;;17.93;100.00;100564.50;5086508;28;20170;-69
2023/09/09 02:46:08;;;;;;;8.88;4.03;;;;;;;17.92;100.00;100568.97;5073033;28;20048;-69
2023/09/09 02:48:35;;;;;;;11.35;4.20;;;;;;;17.97;100.00;100550.94;5071937;28;20501;-69
2023/09/09 02:51:02;;;;;;;8.20;3.58;;;;;;;17.87;100.00;100533.16;5072305;28;20056;-69
2023/09/09 02:53:30;;;;;;;8.18;3.58;;;;;;;18.05;100.00;100560.97;5071312;28;20402;-69
2023/09/09 02:55:56;;;;;;;10.60;4.05;;;;;;;17.96;100.00;100551.03;5072621;28;20048;-69
2023/09/09 02:58:23;;;;;;;8.98;3.58;;;;;;;17.89;100.00;100555.09;5071411;28;20087;-69
2023/09/09 03:00:50;;;;;;;10.40;4.30;;;;;;;17.79;100.00;100550.38;5072496;28;20429;-69
2023/09/09 03:03:16;;;;;;;8.93;3.10;;;;;;;17.74;100.00;100541.94;5071669;28;20045;-69
2023/09/09 03:05:44;;;;;;;10.35;4.03;;;;;;;17.71;100.00;100559.84;5071783;28;20079;-69
2023/09/09 03:08:10;;;;;;;8.20;3.28;;;;;;;17.69;100.00;100552.00;5062675;28;20041;-69
2023/09/09 03:10:37;;;;;;;10.25;3.65;;;;;;;17.77;100.00;100554.09;5072139;28;20063;-69
2023/09/09 03:13:04;;;;;;;9.43;3.55;;;;;;;17.76;100.00;100544.47;5072173;28;20543;-69
2023/09/09 03:15:30;;;;;;;10.90;3.88;;;;;;;17.88;100.00;100566.63;5072071;28;20048;-68
2023/09/09 03:17:57;;;;;;;10.40;4.43;;;;;;;17.51;100.00;100534.75;5073307;28;20104;-69
2023/09/09 03:20:24;;;;;;;13.18;4.15;;;;;;;17.35;100.00;100556.16;5071312;28;20052;-69
2023/09/09 03:22:51;;;;;;;11.27;4.75;;;;;;;17.42;100.00;100563.56;5071855;28;20048;-69
2023/09/09 03:25:18;;;;;;;11.20;4.15;;;;;;;17.42;100.00;100560.06;5070741;28;20051;-69
2023/09/09 03:27:45;;;;;;;10.38;4.13;;;;;;;17.38;100.00;100553.28;5072391;28;20055;-69
2023/09/09 03:30:12;;;;;;;8.77;3.95;;;;;;;17.48;100.00;100570.25;5072328;28;20421;-69
2023/09/09 03:32:38;;;;;;;8.00;3.47;;;;;;;17.53;100.00;100564.59;5072476;28;20118;-69
2023/09/09 03:35:06;;;;;;;7.90;3.30;;;;;;;17.60;100.00;100555.28;5072134;28;20045;-69
2023/09/09 03:37:32;;;;;;;8.45;3.53;;;;;;;17.63;100.00;100557.72;5072597;28;20673;-69
2023/09/09 03:39:59;;;;;;;9.90;3.00;;;;;;;17.64;100.00;100549.69;5072181;28;20044;-69
2023/09/09 03:42:26;;;;;;;10.88;3.70;;;;;;;17.53;100.00;100551.38;5072430;28;20049;-68
2023/09/09 03:44:54;;;;;;;10.07;3.53;;;;;;;17.48;100.00;100542.94;5071396;28;20482;-69
2023/09/09 03:47:21;;;;;;;9.85;4.15;;;;;;;17.20;100.00;100544.81;5071837;28;20051;-69
2023/09/09 03:49:50;;;;;;;11.63;4.15;;;;;;;17.12;100.00;100540.03;5071328;28;20044;-69
2023/09/09 03:52:17;;;;;;;9.65;3.88;;;;;;;17.13;100.00;100544.38;5067306;28;20056;-68
2023/09/09 03:54:43;;;;;;;9.93;3.88;;;;;;;17.01;100.00;100547.88;5066697;28;20052;-69
2023/09/09 03:57:10;;;;;;;13.70;4.35;;;;;;;16.94;100.00;100550.06;5070946;28;20413;-69
2023/09/09 03:59:36;;;;;;;11.32;4.50;;;;;;;17.08;100.00;100563.22;5071465;28;20048;-69
2023/09/09 04:02:03;;;;;;;9.30;4.05;;;;;;;17.04;100.00;100556.44;5069318;28;20058;-69
2023/09/09 04:04:30;;;;;;;12.93;3.92;;;;;;;16.94;100.00;100544.78;5065295;28;20394;-69
2023/09/09 04:06:57;;;;;;;8.95;3.53;;;;;;;17.17;100.00;100559.09;5059885;28;20052;-68
2023/09/09 04:09:26;;;;;;;9.15;3.72;;;;;;;17.28;100.00;100555.72;5071287;28;20056;-69
2023/09/09 04:11:53;;;;;;;8.70;3.42;;;;;;;17.26;100.00;100544.38;5071548;28;21081;-69
2023/09/09 04:14:20;;;;;;;10.50;3.65;;;;;;;16.87;100.00;100559.38;5065296;28;20407;-69
2023/09/09 04:16:46;;;;;;;10.82;4.10;;;;;;;16.62;100.00;100560.97;5069612;28;20059;-69
2023/09/09 04:19:13;;;;;;;11.13;5.38;;;;;;;16.55;100.00;100566.75;5070155;28;20040;-69
2023/09/09 04:21:40;;;;;;;15.57;5.05;;;;;;;16.58;100.00;100566.56;5072078;28;20049;-69
2023/09/09 04:24:07;;;;;;;12.70;4.50;;;;;;;16.67;100.00;100574.72;5071017;28;20057;-69
2023/09/09 04:26:35;;;;;;;11.10;4.22;;;;;;;16.75;100.00;100568.09;5070964;28;20048;-68
2023/09/09 04:29:02;;;;;;;11.85;4.07;;;;;;;16.85;100.00;100572.69;5066465;28;20066;-68
2023/09/09 04:31:28;;;;;;;11.27;4.50;;;;;;;16.95;100.00;100570.28;5070648;28;20486;-69
2023/09/09 04:33:55;;;;;;;11.52;4.57;;;;;;;16.99;100.00;100577.06;5067900;28;20415;-69
2023/09/09 04:36:22;;;;;;;11.25;4.10;;;;;;;17.08;100.00;100579.06;5065238;28;20045;-69
2023/09/09 04:38:48;;;;;;;10.93;4.50;;;;;;;17.08;100.00;100579.06;5070656;28;20131;-68
2023/09/09 04:41:15;;;;;;;13.80;4.65;;;;;;;17.06;100.00;100574.84;5070115;28;20117;-69
2023/09/09 04:43:43;;;;;;;9.38;3.70;;;;;;;17.17;100.00;100582.91;5070117;28;20044;-69
2023/09/09 04:46:10;;;;;;;14.63;4.45;;;;;;;17.16;100.00;100581.22;5070365;28;20132;-68
2023/09/09 04:48:36;;;;;;;13.52;4.97;;;;;;;17.11;100.00;100578.03;5070634;28;20285;-69
2023/09/09 04:51:03;;;;;;;10.30;3.88;;;;;;;17.02;100.00;100558.34;5070197;28;20045;-69
2023/09/09 04:53:30;;;;;;;9.45;4.10;;;;;;;17.03;100.00;100561.84;5068419;28;20064;-69
2023/09/09 04:56:00;;;;;;;10.50;3.92;;;;;;;17.06;100.00;100565.13;5060155;28;20044;-68
2023/09/09 04:58:28;;;;;;;11.13;4.30;;;;;;;17.06;100.00;100569.56;5070096;28;20060;-68
2023/09/09 05:00:55;;;;;;;15.02;5.03;;;;;;;17.03;100.00;100575.06;5069424;28;20102;-69
2023/09/09 05:03:21;;;;;;;8.55;4.15;;;;;;;17.21;100.00;100568.53;5068171;28;20437;-69
2023/09/09 05:05:48;;;;;;;10.65;4.13;;;;;;;17.32;100.00;100561.66;5063090;28;20051;-69
2023/09/09 05:08:15;;;;;;;8.95;3.95;;;;;;;17.37;100.00;100570.97;5059810;28;20056;-69
2023/09/09 05:10:42;;;;;;;11.70;4.20;;;;;;;17.37;100.00;100564.81;5053729;28;20540;-69
2023/09/09 05:13:08;;;;;;;14.60;4.15;;;;;;;17.32;100.00;100573.09;5054440;28;20048;-69
2023/09/09 05:15:35;;;;;;;16.35;4.20;;;;;;;17.19;100.00;100566.94;5052108;28;20076;-69
2023/09/09 05:18:02;;;;;;;11.88;3.95;;;;;;;17.12;100.00;100566.50;5057887;28;20040;-69
2023/09/09 05:20:29;;;;;;;10.43;4.05;;;;;;;17.14;100.00;100571.69;5052426;28;20060;-69
2023/09/09 05:22:56;;;;;;;9.80;4.18;;;;;;;17.15;100.00;100562.81;5052578;28;20490;-69
2023/09/09 05:25:23;;;;;;;11.70;4.35;;;;;;;17.25;100.00;100574.47;5060481;28;20053;-69
2023/09/09 05:27:50;;;;;;;12.25;4.03;;;;;;;17.37;100.00;100575.41;5056517;28;20155;-69
2023/09/09 05:30:16;;;;;;;9.23;3.55;;;;;;;17.40;100.00;100585.78;5057909;28;20053;-69
2023/09/09 05:32:43;;;;;;;10.93;3.65;;;;;;;17.49;100.00;100577.22;5059084;28;20048;-68
2023/09/09 05:35:10;;;;;;;9.20;3.60;;;;;;;17.57;100.00;100576.69;5057247;28;20048;-69
2023/09/09 05:37:38;;;;;;;9.63;3.97;;;;;;;17.67;100.00;100582.19;5050651;28;20052;-69
2023/09/09 05:40:05;;;;;;;10.88;3.95;;;;;;;17.60;100.00;100577.31;5053154;28;20041;-69
2023/09/09 05:42:32;;;;;;;9.63;4.07;;;;;;;17.62;100.00;100577.22;5055094;28;20049;-68
2023/09/09 05:44:59;;;;;;;12.68;4.03;;;;;;;17.58;100.00;100570.44;5064387;28;20063;-68
2023/09/09 05:47:25;;;;;;;11.10;4.00;;;;;;;17.45;100.00;100571.28;5057950;28;20056;-68
2023/09/09 05:49:52;;;;;;;11.85;4.00;;;;;;;17.56;100.00;100581.13;5055325;28;20451;-68
2023/09/09 05:52:19;;;;;;;11.77;3.95;;;;;;;17.71;100.00;100588.97;5066853;28;20046;-68
2023/09/09 05:54:45;;;;;;;12.68;3.92;;;;;;;17.70;100.00;100584.63;5052766;28;20100;-68
2023/09/09 05:57:12;;;;;;;11.30;3.42;;;;;;;17.75;100.00;100582.50;5063988;28;20135;-68
2023/09/09 05:59:39;;;;;;;8.32;3.67;;;;;;;17.74;100.00;100584.31;5061522;28;20060;-68
2023/09/09 06:02:06;;;;;;;9.27;3.55;;;;;;;17.88;100.00;100579.84;5049414;28;20178;-68
2023/09/09 06:04:33;;;;;;;10.32;3.80;;;;;;;17.94;100.00;100587.38;5050682;28;20410;-68
2023/09/09 06:07:00;;;;;;;11.82;3.85;;;;;;;18.01;100.00;100583.34;5060668;28;20044;-68
2023/09/09 06:09:26;;;;;;;10.35;3.72;;;;;;;18.11;100.00;100592.31;5053171;28;20037;-68
2023/09/09 06:11:53;;;;;;;12.60;3.72;;;;;;;18.16;100.00;100573.44;5055649;28;20043;-68
2023/09/09 06:14:20;;;;;;;12.63;3.58;;;;;;;18.32;100.00;100591.72;5065378;28;20052;-68
2023/09/09 06:16:46;;;;;;;11.52;3.40;;;;;;;18.49;100.00;100587.88;5063936;28;20060;-68
2023/09/09 06:19:13;;;;;;;8.70;3.60;;;;;;;18.71;100.00;100584.47;5059920;28;20045;-68
2023/09/09 06:21:40;;;;;;;8.48;3.08;;;;;;;18.82;100.00;100591.66;5058699;28;20229;-68
2023/09/09 06:24:07;;;;;;;14.15;3.90;;;;;;;18.87;100.00;100594.81;5066691;28;20063;-68
2023/09/09 06:26:34;;;;;;;10.80;3.72;;;;;;;18.88;100.00;100596.50;5066633;28;20075;-68
2023/09/09 06:29:01;;;;;;;8.25;4.00;;;;;;;18.82;100.00;100589.00;5068397;28;20090;-68
2023/09/09 06:31:28;;;;;;;12.23;4.40;;;;;;;19.01;100.00;100601.72;5072919;28;20098;-68
2023/09/09 06:33:54;;;;;;;9.27;3.40;;;;;;;19.08;100.00;100585.22;5064878;28;20144;-68
2023/09/09 06:36:22;;;;;;;9.30;3.20;;;;;;;19.22;100.00;100608.06;5057069;28;20402;-68
2023/09/09 06:38:50;;;;;;;9.93;3.20;;;;;;;19.24;100.00;100602.66;5069418;28;20486;-68
2023/09/09 06:41:16;;;;;;;10.88;3.85;;;;;;;19.29;100.00;100603.97;5067837;28;20088;-69
2023/09/09 06:43:43;;;;;;;11.85;4.10;;;;;;;19.23;100.00;100606.25;5062742;28;20482;-68
2023/09/09 06:46:10;;;;;;;13.27;4.60;;;;;;;19.38;100.00;100606.91;5070571;28;20053;-68
2023/09/09 06:48:37;;;;;;;10.32;3.90;;;;;;;19.39;100.00;100613.88;5069599;28;20055;-68
2023/09/09 06:51:03;;;;;;;10.98;4.50;;;;;;;19.46;100.00;100610.66;5073176;28;20047;-68
2023/09/09 06:53:30;;;;;;;12.15;3.97;;;;;;;19.60;100.00;100616.69;5063631;28;20414;-68
2023/09/09 06:55:57;;;;;;;10.68;3.75;;;;;;;19.61;100.00;100611.28;5060944;28;20135;-68
2023/09/09 06:58:24;;;;;;;11.77;4.00;;;;;;;20.05;100.00;100619.41;5071904;28;20056;-68
2023/09/09 07:00:51;;;;;;;16.10;5.97;;;;;;;20.90;100.00;100610.78;5060004;28;20045;-68
2023/09/09 07:03:19;;;;;;;11.98;4.78;;;;;;;21.51;100.00;100612.75;5060403;28;20045;-68
2023/09/09 07:05:46;;;;;;;15.75;4.45;;;;;;;22.03;100.00;100618.06;5059065;28;20488;-69
2023/09/09 07:08:13;;;;;;;21.60;5.88;;;;;;;22.05;100.00;100612.59;5056405;28;20056;-69
2023/09/09 07:10:51;;;;;;;11.05;4.45;;;;;;;22.36;100.00;100616.94;5054023;28;20116;-69
2023/09/09 07:13:19;;;;;;;10.98;3.88;;;;;;;22.63;100.00;100604.75;5066436;28;20446;-68
2023/09/09 07:15:46;;;;;;;10.82;4.30;;;;;;;22.86;100.00;100624.00;5064760;28;20052;-68
2023/09/09 07:18:13;;;;;;;8.13;3.30;;;;;;;23.20;100.00;100622.78;5056329;28;20049;-68
2023/09/09 07:20:41;;;;;;;11.60;4.05;;;;;;;23.10;100.00;100623.59;5058655;28;20086;-68
2023/09/09 07:23:08;;;;;;;10.27;4.00;;;;;;;23.43;100.00;100620.63;5067707;28;20106;-68
2023/09/09 07:25:35;;;;;;;14.10;4.70;;;;;;;23.46;100.00;100614.97;5058860;28;20064;-68
2023/09/09 07:28:02;;;;;;;12.52;4.20;;;;;;;23.57;100.00;100614.81;5066607;28;20037;-68
2023/09/09 07:30:31;;;;;;;11.20;3.70;;;;;;;23.69;100.00;100615.44;5071242;28;20398;-68
2023/09/09 07:32:57;;;;;;;13.05;4.07;;;;;;;23.84;100.00;100624.72;5083577;28;20498;-69
2023/09/09 07:35:24;;;;;;;10.15;4.03;;;;;;;23.94;100.00;100624.69;5071778;28;20068;-69
2023/09/09 07:37:51;;;;;;;10.95;3.55;;;;;;;24.50;100.00;100612.13;5064707;28;20053;-69
2023/09/09 07:40:18;;;;;;;12.35;3.65;;;;;;;24.56;100.00;100627.63;5073484;28;20422;-69
2023/09/09 07:42:44;;;;;;;11.45;4.30;;;;;;;24.52;100.00;100618.16;5061610;28;20497;-69
2023/09/09 07:45:11;;;;;;;8.55;3.33;;;;;;;25.05;100.00;100637.09;5058105;28;20041;-69
2023/09/09 07:47:38;;;;;;;9.80;4.00;;;;;;;24.93;100.00;100642.72;5052764;28;20397;-69
2023/09/09 07:50:06;;;;;;;9.35;3.22;;;;;;;25.04;100.00;100636.28;5066131;28;20087;-69
2023/09/09 07:52:32;;;;;;;12.85;4.53;;;;;;;24.66;100.00;100621.34;5069370;28;20402;-69
2023/09/09 07:54:59;;;;;;;13.48;4.15;;;;;;;24.93;100.00;100636.50;5061372;28;20067;-69
2023/09/09 07:57:26;;;;;;;9.93;4.10;;;;;;;24.86;100.00;100633.59;5056837;28;20052;-69
2023/09/09 07:59:52;;;;;;;13.40;3.97;;;;;;;25.20;100.00;100630.22;5064125;28;20495;-69
2023/09/09 08:02:19;;;;;;;9.40;2.95;;;;;;;25.63;100.00;100638.41;5062054;28;20059;-69
2023/09/09 08:04:47;;;;;;;14.23;4.85;;;;;;;25.68;100.00;100638.78;5064956;28;20044;-69
2023/09/09 08:07:13;;;;;;;17.33;4.60;;;;;;;25.57;100.00;100640.72;5062947;28;20078;-69
2023/09/09 08:09:41;;;;;;;12.25;4.13;;;;;;;25.79;100.00;100637.66;5061984;28;20041;-69
2023/09/09 08:12:07;;;;;;;12.32;4.25;;;;;;;25.71;100.00;100641.97;5063915;28;20052;-68
2023/09/09 08:14:34;;;;;;;10.57;4.22;;;;;;;25.95;100.00;100635.91;5069952;28;20493;-68
2023/09/09 08:17:01;;;;;;;15.50;4.25;;;;;;;26.17;100.00;100639.03;5071311;28;20049;-69
2023/09/09 08:19:27;;;;;;;11.75;3.80;;;;;;;25.88;100.00;100642.06;5062997;28;20052;-69
2023/09/09 08:21:54;;;;;;;12.68;3.53;;;;;;;25.92;100.00;100644.28;5053929;28;20137;-68
2023/09/09 08:24:21;;;;;;;11.15;3.50;;;;;;;25.67;100.00;100619.13;5065187;28;20055;-69
2023/09/09 08:26:48;;;;;;;12.70;3.63;;;;;;;26.02;100.00;100640.66;5061113;28;20493;-69
2023/09/09 08:29:15;;;;;;;10.73;3.35;;;;;;;26.17;100.00;100638.19;5068270;28;20041;-69
2023/09/09 08:31:41;;;;;;;9.43;3.50;;;;;;;26.20;100.00;100611.88;5069424;28;20199;-69
2023/09/09 08:34:08;;;;;;;14.07;3.83;;;;;;;26.17;100.00;100640.88;5066936;28;20054;-69
2023/09/09 08:36:35;;;;;;;9.65;3.72;;;;;;;26.47;100.00;100628.72;5067803;28;20063;-68
2023/09/09 08:39:01;;;;;;;12.52;4.20;;;;;;;26.56;100.00;100629.56;5073567;28;20505;-69
2023/09/09 08:41:54;;;;;;;10.77;3.92;;;;;;;26.46;100.00;100632.41;5060506;28;20056;-68
2023/09/09 08:44:44;;;;;;;9.82;4.07;;;;;;;26.33;100.00;100641.78;5050921;28;20044;-68
2023/09/09 08:47:11;;;;;;;13.40;4.45;;;;;;;26.30;100.00;100636.72;5056681;28;20057;-68
2023/09/09 08:49:41;;;;;;;11.70;3.80;;;;;;;26.71;100.00;100636.84;5055858;28;20474;-68
2023/09/09 08:52:18;;;;;;;12.43;3.92;;;;;;;27.01;100.00;100634.53;5070549;28;20053;-68
2023/09/09 08:54:45;;;;;;;9.30;3.67;;;;;;;27.19;100.00;100638.91;5056770;28;20056;-68
2023/09/09 08:57:12;;;;;;;13.45;4.85;;;;;;;26.65;100.00;100637.53;5069336;28;20052;-69
2023/09/09 08:59:41;;;;;;;12.68;4.50;;;;;;;26.55;100.00;100625.22;5066486;28;20459;-69
2023/09/09 09:02:10;;;;;;;12.77;3.88;;;;;;;26.64;100.00;100632.31;5065134;28;20049;-69
2023/09/09 09:04:37;;;;;;;13.77;4.82;;;;;;;26.59;100.00;100629.25;5063730;28;20049;-68
2023/09/09 09:07:08;;;;;;;11.73;5.13;;;;;;;26.81;100.00;100625.13;5065745;28;20118;-69
2023/09/09 09:09:34;;;;;;;15.13;4.40;;;;;;;27.03;100.00;100629.00;5058713;28;20593;-68
2023/09/09 09:12:05;;;;;;;10.73;3.83;;;;;;;27.14;100.00;100627.81;5057038;28;20055;-69
2023/09/09 09:14:31;;;;;;;12.02;4.80;;;;;;;27.25;100.00;100640.91;5057909;28;20049;-68
2023/09/09 09:17:00;;;;;;;14.25;4.53;;;;;;;27.04;100.00;100644.94;5068029;28;20056;-68
2023/09/09 09:19:29;;;;;;;12.02;3.45;;;;;;;27.17;100.00;100641.75;5067298;28;20053;-69
2023/09/09 09:21:57;;;;;;;16.95;4.55;;;;;;;26.77;100.00;100639.88;5065146;28;20044;-69
2023/09/09 09:24:27;;;;;;;16.45;3.92;;;;;;;26.58;100.00;100636.47;5059947;28;20091;-69
2023/09/09 09:26:55;;;;;;;13.27;4.03;;;;;;;26.68;100.00;100644.41;5063533;28;20143;-69
2023/09/09 09:29:22;;;;;;;16.63;4.65;;;;;;;26.51;100.00;100625.56;5053870;28;20380;-69
2023/09/09 09:31:54;;;;;;;13.02;3.72;;;;;;;27.10;100.00;100640.75;5065564;28;20769;-69
2023/09/09 09:34:32;;;;;;;17.35;4.95;;;;;;;26.69;100.00;100628.13;5056715;28;20603;-69
2023/09/09 09:37:03;;;;;;;16.83;4.82;;;;;;;26.61;100.00;100608.44;5058255;28;20356;-68
2023/09/09 09:39:36;;;;;;;12.02;4.75;;;;;;;26.69;100.00;100619.25;5062642;28;20049;-69
2023/09/09 09:42:03;;;;;;;12.30;5.15;;;;;;;26.51;100.00;100616.66;5062935;28;20048;-69
2023/09/09 09:44:30;;;;;;;12.10;4.88;;;;;;;26.32;100.00;100610.56;5063309;28;20055;-69
2023/09/09 09:47:08;;;;;;;12.88;3.90;;;;;;;26.66;100.00;100615.03;5056584;28;20044;-69
2023/09/09 09:49:40;;;;;;;14.15;4.78;;;;;;;26.90;100.00;100621.44;5064699;28;20052;-69
2023/09/09 09:52:08;;;;;;;13.02;4.75;;;;;;;26.62;100.00;100615.53;5075662;28;20136;-68
2023/09/09 09:54:36;;;;;;;12.80;5.20;;;;;;;26.49;100.00;100622.19;5063515;28;20498;-69
2023/09/09 09:57:05;;;;;;;10.45;4.15;;;;;;;26.70;100.00;100610.16;5056987;28;20044;-69
2023/09/09 09:59:34;;;;;;;13.73;5.10;;;;;;;26.74;100.00;100622.28;5053939;28;20084;-68
2023/09/09 10:02:03;;;;;;;11.27;4.18;;;;;;;26.82;100.00;100618.75;5055269;28;20045;-68
2023/09/09 10:04:38;;;;;;;10.90;3.90;;;;;;;26.84;100.00;100614.03;5057884;28;20062;-69
2023/09/09 10:07:11;;;;;;;12.23;4.50;;;;;;;27.02;100.00;100603.13;5055783;28;20096;-69
2023/09/09 10:09:55;;;;;;;12.38;4.50;;;;;;;27.26;100.00;100607.66;5058477;28;20041;-69
2023/09/09 10:12:21;;;;;;;14.18;5.20;;;;;;;26.87;100.00;100616.41;5057622;28;20041;-69
2023/09/09 10:15:09;;;;;;;13.43;5.35;;;;;;;26.76;100.00;100606.00;5064668;28;20563;-69
2023/09/09 10:17:36;;;;;;;16.20;4.78;;;;;;;27.08;100.00;100595.22;5052084;28;20049;-69
2023/09/09 10:20:05;;;;;;;12.80;5.03;;;;;;;26.89;100.00;100598.25;5054525;28;20091;-68
2023/09/09 10:22:33;;;;;;;12.20;4.38;;;;;;;27.02;100.00;100600.44;5056818;28;20057;-69
2023/09/09 10:25:03;;;;;;;12.82;4.38;;;;;;;26.91;100.00;100582.81;5062737;28;21695;-69
2023/09/09 10:27:30;;;;;;;12.32;4.22;;;;;;;27.05;100.00;100597.41;5067589;28;20052;-69
2023/09/09 10:29:58;;;;;;;9.77;3.90;;;;;;;27.22;100.00;100587.50;5057446;28;20055;-68
2023/09/09 10:32:26;;;;;;;15.80;4.50;;;;;;;26.88;100.00;100589.38;5067830;28;20089;-69
2023/09/09 10:34:54;;;;;;;15.13;4.75;;;;;;;27.11;100.00;100580.63;5062519;28;20049;-68
2023/09/09 10:37:22;;;;;;;12.80;5.43;;;;;;;27.38;100.00;100598.25;5066057;28;20098;-69
2023/09/09 10:39:50;;;;;;;12.13;4.40;;;;;;;27.43;100.00;100595.91;5058656;28;20139;-69
2023/09/09 10:42:18;;;;;;;11.63;4.93;;;;;;;27.26;100.00;100589.66;5064459;28;20470;-68
2023/09/09 10:44:48;;;;;;;15.57;4.30;;;;;;;27.67;100.00;100596.84;5065332;28;20052;-69
2023/09/09 10:47:16;;;;;;;12.27;4.90;;;;;;;27.58;100.00;100587.94;5063831;28;20402;-68
2023/09/09 10:49:43;;;;;;;13.57;4.90;;;;;;;28.02;100.00;100586.66;5058610;28;20392;-68
2023/09/09 10:52:31;;;;;;;11.13;4.47;;;;;;;27.82;100.00;100587.03;5052007;28;20464;-69
2023/09/09 10:55:13;;;;;;;11.48;4.25;;;;;;;27.97;100.00;100568.31;5062376;28;20045;-69
2023/09/09 10:57:40;;;;;;;11.13;3.83;;;;;;;27.80;100.00;100575.63;5059971;28;20086;-68
2023/09/09 11:00:10;;;;;;;10.38;3.95;;;;;;;27.49;100.00;100586.31;5064838;28;20063;-68
2023/09/09 11:02:46;;;;;;;9.73;3.25;;;;;;;27.77;100.00;100575.13;5059244;28;20113;-68
2023/09/09 11:05:15;;;;;;;11.52;3.10;;;;;;;28.19;100.00;100593.63;5065443;28;20053;-69
2023/09/09 11:07:44;;;;;;;9.32;3.53;;;;;;;28.11;100.00;100582.91;5070717;28;20697;-67
2023/09/09 11:10:16;;;;;;;11.68;3.05;;;;;;;28.19;100.00;100573.97;5067790;28;20071;-67
2023/09/09 11:12:50;;;;;;;;;;;;;;;28.33;100.00;100577.72;5056105;28;20049;-68
2023/09/09 11:15:17;;;;;;;7.25;2.35;;;;;;;28.45;100.00;100587.06;5058344;28;19920;-67